sensor_id;sensor_type;location;lat;lon;timestamp;P1;durP1;ratioP1;P2;durP2;ratioP2
10497;SDS011;5296;51.060;13.750;2023-01-23T00:03:18;16.50;;;10.97;;
10497;SDS011;5296;51.060;13.750;2023-01-23T00:08:19;16.17;;;11.27;;
10497;SDS011;5296;51.060;13.750;2023-01-23T00:13:21;15.50;;;11.50;;
10497;SDS011;5296;51.060;13.750;2023-01-23T00:18:23;15.23;;;10.97;;
10497;SDS011;5296;51.060;13.750;2023-01-23T00:23:25;14.67;;;10.77;;
10497;SDS011;5296;51.060;13.750;2023-01-23T00:28:26;15.80;;;10.57;;
10497;SDS011;5296;51.060;13.750;2023-01-23T00:33:28;15.87;;;11.40;;
10497;SDS011;5296;51.060;13.750;2023-01-23T00:38:29;14.50;;;10.83;;
10497;SDS011;5296;51.060;13.750;2023-01-23T00:43:31;15.73;;;10.70;;
10497;SDS011;5296;51.060;13.750;2023-01-23T00:48:33;17.63;;;10.97;;
10497;SDS011;5296;51.060;13.750;2023-01-23T00:53:34;16.37;;;11.13;;
10497;SDS011;5296;51.060;13.750;2023-01-23T00:58:36;17.17;;;11.63;;
10497;SDS011;5296;51.060;13.750;2023-01-23T01:03:38;17.33;;;11.93;;
10497;SDS011;5296;51.060;13.750;2023-01-23T01:08:41;16.13;;;11.37;;
10497;SDS011;5296;51.060;13.750;2023-01-23T01:13:43;14.47;;;10.50;;
10497;SDS011;5296;51.060;13.750;2023-01-23T01:18:45;17.27;;;10.60;;
10497;SDS011;5296;51.060;13.750;2023-01-23T01:23:46;15.00;;;10.60;;
10497;SDS011;5296;51.060;13.750;2023-01-23T01:28:48;16.70;;;10.70;;
10497;SDS011;5296;51.060;13.750;2023-01-23T01:33:50;14.83;;;10.57;;
10497;SDS011;5296;51.060;13.750;2023-01-23T01:38:52;13.23;;;10.40;;
10497;SDS011;5296;51.060;13.750;2023-01-23T01:43:54;14.93;;;10.47;;
10497;SDS011;5296;51.060;13.750;2023-01-23T01:59:20;12.87;;;9.83;;
10497;SDS011;5296;51.060;13.750;2023-01-23T02:04:24;15.77;;;10.70;;
10497;SDS011;5296;51.060;13.750;2023-01-23T02:09:25;14.13;;;10.23;;
10497;SDS011;5296;51.060;13.750;2023-01-23T02:14:27;16.17;;;10.30;;
10497;SDS011;5296;51.060;13.750;2023-01-23T02:24:58;14.07;;;9.77;;
10497;SDS011;5296;51.060;13.750;2023-01-23T02:30:06;13.13;;;9.77;;
10497;SDS011;5296;51.060;13.750;2023-01-23T02:35:27;14.23;;;9.90;;
10497;SDS011;5296;51.060;13.750;2023-01-23T02:40:39;13.87;;;10.03;;
10497;SDS011;5296;51.060;13.750;2023-01-23T02:45:45;13.63;;;9.90;;
10497;SDS011;5296;51.060;13.750;2023-01-23T02:50:49;14.77;;;10.07;;
10497;SDS011;5296;51.060;13.750;2023-01-23T02:55:51;13.83;;;9.97;;
10497;SDS011;5296;51.060;13.750;2023-01-23T03:00:55;13.70;;;10.20;;
10497;SDS011;5296;51.060;13.750;2023-01-23T03:05:57;12.90;;;9.43;;
10497;SDS011;5296;51.060;13.750;2023-01-23T03:11:04;14.10;;;10.57;;
10497;SDS011;5296;51.060;13.750;2023-01-23T03:16:05;14.73;;;10.13;;
10497;SDS011;5296;51.060;13.750;2023-01-23T03:21:07;15.80;;;10.60;;
10497;SDS011;5296;51.060;13.750;2023-01-23T03:26:09;12.27;;;10.03;;
10497;SDS011;5296;51.060;13.750;2023-01-23T03:31:12;14.40;;;10.50;;
10497;SDS011;5296;51.060;13.750;2023-01-23T03:36:14;13.40;;;10.40;;
10497;SDS011;5296;51.060;13.750;2023-01-23T03:41:16;13.90;;;10.23;;
10497;SDS011;5296;51.060;13.750;2023-01-23T03:46:32;14.77;;;9.93;;
10497;SDS011;5296;51.060;13.750;2023-01-23T03:51:34;13.00;;;10.07;;
10497;SDS011;5296;51.060;13.750;2023-01-23T03:56:36;13.63;;;10.37;;
10497;SDS011;5296;51.060;13.750;2023-01-23T04:01:42;13.80;;;9.70;;
10497;SDS011;5296;51.060;13.750;2023-01-23T04:06:44;13.13;;;9.87;;
10497;SDS011;5296;51.060;13.750;2023-01-23T04:11:46;14.43;;;9.73;;
10497;SDS011;5296;51.060;13.750;2023-01-23T04:16:48;14.13;;;10.47;;
10497;SDS011;5296;51.060;13.750;2023-01-23T04:21:51;14.90;;;10.37;;
10497;SDS011;5296;51.060;13.750;2023-01-23T04:26:53;14.33;;;10.37;;
10497;SDS011;5296;51.060;13.750;2023-01-23T04:31:55;14.43;;;9.93;;
10497;SDS011;5296;51.060;13.750;2023-01-23T04:36:57;13.03;;;9.77;;
10497;SDS011;5296;51.060;13.750;2023-01-23T04:41:59;15.10;;;11.20;;
10497;SDS011;5296;51.060;13.750;2023-01-23T04:47:15;15.93;;;11.10;;
10497;SDS011;5296;51.060;13.750;2023-01-23T04:52:18;14.07;;;10.20;;
10497;SDS011;5296;51.060;13.750;2023-01-23T04:57:27;14.47;;;10.53;;
10497;SDS011;5296;51.060;13.750;2023-01-23T05:02:41;16.53;;;11.20;;
10497;SDS011;5296;51.060;13.750;2023-01-23T05:07:43;16.30;;;12.03;;
10497;SDS011;5296;51.060;13.750;2023-01-23T05:12:48;14.67;;;10.10;;
10497;SDS011;5296;51.060;13.750;2023-01-23T05:17:50;17.00;;;11.30;;
10497;SDS011;5296;51.060;13.750;2023-01-23T05:22:52;14.87;;;11.10;;
10497;SDS011;5296;51.060;13.750;2023-01-23T05:28:02;15.83;;;11.20;;
10497;SDS011;5296;51.060;13.750;2023-01-23T05:33:05;15.20;;;10.70;;
10497;SDS011;5296;51.060;13.750;2023-01-23T05:38:06;18.20;;;11.23;;
10497;SDS011;5296;51.060;13.750;2023-01-23T05:43:12;15.97;;;11.67;;
10497;SDS011;5296;51.060;13.750;2023-01-23T05:48:37;17.40;;;11.77;;
10497;SDS011;5296;51.060;13.750;2023-01-23T05:53:43;16.23;;;12.40;;
10497;SDS011;5296;51.060;13.750;2023-01-23T05:58:46;17.83;;;12.63;;
10497;SDS011;5296;51.060;13.750;2023-01-23T06:03:56;15.87;;;12.13;;
10497;SDS011;5296;51.060;13.750;2023-01-23T06:09:07;15.07;;;11.57;;
10497;SDS011;5296;51.060;13.750;2023-01-23T06:14:09;16.87;;;12.50;;
10497;SDS011;5296;51.060;13.750;2023-01-23T06:19:11;17.07;;;12.53;;
10497;SDS011;5296;51.060;13.750;2023-01-23T06:24:14;14.97;;;12.00;;
10497;SDS011;5296;51.060;13.750;2023-01-23T06:29:15;19.87;;;13.97;;
10497;SDS011;5296;51.060;13.750;2023-01-23T06:34:17;21.30;;;13.83;;
10497;SDS011;5296;51.060;13.750;2023-01-23T06:39:29;22.37;;;14.63;;
10497;SDS011;5296;51.060;13.750;2023-01-23T06:44:31;21.37;;;14.43;;
10497;SDS011;5296;51.060;13.750;2023-01-23T06:49:33;23.80;;;14.47;;
10497;SDS011;5296;51.060;13.750;2023-01-23T06:54:35;20.23;;;13.37;;
10497;SDS011;5296;51.060;13.750;2023-01-23T06:59:39;20.63;;;13.73;;
10497;SDS011;5296;51.060;13.750;2023-01-23T07:04:43;23.60;;;14.50;;
10497;SDS011;5296;51.060;13.750;2023-01-23T07:09:45;22.07;;;13.60;;
10497;SDS011;5296;51.060;13.750;2023-01-23T07:14:52;25.13;;;14.50;;
10497;SDS011;5296;51.060;13.750;2023-01-23T07:20:02;22.10;;;14.43;;
10497;SDS011;5296;51.060;13.750;2023-01-23T07:25:07;23.07;;;14.47;;
10497;SDS011;5296;51.060;13.750;2023-01-23T07:30:09;23.13;;;14.90;;
10497;SDS011;5296;51.060;13.750;2023-01-23T07:35:12;24.53;;;14.97;;
10497;SDS011;5296;51.060;13.750;2023-01-23T07:40:14;20.33;;;14.67;;
10497;SDS011;5296;51.060;13.750;2023-01-23T07:45:15;21.77;;;14.37;;
10497;SDS011;5296;51.060;13.750;2023-01-23T07:50:17;20.20;;;14.30;;
10497;SDS011;5296;51.060;13.750;2023-01-23T07:55:19;24.70;;;16.13;;
10497;SDS011;5296;51.060;13.750;2023-01-23T08:00:21;22.17;;;15.33;;
10497;SDS011;5296;51.060;13.750;2023-01-23T08:05:26;19.30;;;13.83;;
10497;SDS011;5296;51.060;13.750;2023-01-23T08:10:28;18.80;;;13.17;;
10497;SDS011;5296;51.060;13.750;2023-01-23T08:15:29;17.33;;;12.57;;
10497;SDS011;5296;51.060;13.750;2023-01-23T08:20:31;20.20;;;13.13;;
10497;SDS011;5296;51.060;13.750;2023-01-23T08:25:33;18.30;;;13.80;;
10497;SDS011;5296;51.060;13.750;2023-01-23T08:30:36;19.53;;;13.33;;
10497;SDS011;5296;51.060;13.750;2023-01-23T08:35:37;19.23;;;14.03;;
10497;SDS011;5296;51.060;13.750;2023-01-23T08:40:39;20.20;;;13.70;;
10497;SDS011;5296;51.060;13.750;2023-01-23T08:45:41;19.20;;;13.83;;
10497;SDS011;5296;51.060;13.750;2023-01-23T08:50:48;18.13;;;13.37;;
10497;SDS011;5296;51.060;13.750;2023-01-23T08:55:50;20.43;;;14.63;;
10497;SDS011;5296;51.060;13.750;2023-01-23T09:00:52;21.17;;;14.13;;
10497;SDS011;5296;51.060;13.750;2023-01-23T09:05:53;19.40;;;14.47;;
10497;SDS011;5296;51.060;13.750;2023-01-23T09:11:02;23.53;;;15.23;;
10497;SDS011;5296;51.060;13.750;2023-01-23T09:16:05;24.40;;;15.73;;
10497;SDS011;5296;51.060;13.750;2023-01-23T09:21:12;23.83;;;14.60;;
10497;SDS011;5296;51.060;13.750;2023-01-23T09:26:16;23.20;;;14.47;;
10497;SDS011;5296;51.060;13.750;2023-01-23T09:31:20;23.27;;;15.00;;
10497;SDS011;5296;51.060;13.750;2023-01-23T09:36:21;23.30;;;14.73;;
10497;SDS011;5296;51.060;13.750;2023-01-23T09:41:38;25.03;;;15.77;;
10497;SDS011;5296;51.060;13.750;2023-01-23T09:46:42;24.23;;;15.83;;
10497;SDS011;5296;51.060;13.750;2023-01-23T09:56:52;20.53;;;13.93;;
10497;SDS011;5296;51.060;13.750;2023-01-23T10:01:55;27.97;;;15.50;;
10497;SDS011;5296;51.060;13.750;2023-01-23T10:17:52;22.50;;;14.10;;
10497;SDS011;5296;51.060;13.750;2023-01-23T10:28:34;25.37;;;16.27;;
10497;SDS011;5296;51.060;13.750;2023-01-23T10:33:41;21.93;;;14.50;;
10497;SDS011;5296;51.060;13.750;2023-01-23T10:39:04;23.60;;;15.23;;
10497;SDS011;5296;51.060;13.750;2023-01-23T10:44:12;20.40;;;13.57;;
10497;SDS011;5296;51.060;13.750;2023-01-23T10:49:26;19.43;;;14.00;;
10497;SDS011;5296;51.060;13.750;2023-01-23T10:54:45;21.87;;;14.50;;
10497;SDS011;5296;51.060;13.750;2023-01-23T10:59:54;20.17;;;14.27;;
10497;SDS011;5296;51.060;13.750;2023-01-23T11:10:52;21.37;;;14.37;;
10497;SDS011;5296;51.060;13.750;2023-01-23T11:15:54;20.37;;;15.30;;
10497;SDS011;5296;51.060;13.750;2023-01-23T11:20:56;20.53;;;15.33;;
10497;SDS011;5296;51.060;13.750;2023-01-23T11:25:58;22.13;;;14.33;;
10497;SDS011;5296;51.060;13.750;2023-01-23T11:31:13;20.37;;;14.93;;
10497;SDS011;5296;51.060;13.750;2023-01-23T11:41:27;20.50;;;15.13;;
10497;SDS011;5296;51.060;13.750;2023-01-23T11:51:41;23.60;;;15.20;;
10497;SDS011;5296;51.060;13.750;2023-01-23T12:07:25;23.27;;;16.03;;
10497;SDS011;5296;51.060;13.750;2023-01-23T12:22:46;23.90;;;15.17;;
10497;SDS011;5296;51.060;13.750;2023-01-23T12:28:09;22.80;;;15.33;;
10497;SDS011;5296;51.060;13.750;2023-01-23T12:44:10;24.73;;;16.07;;
10497;SDS011;5296;51.060;13.750;2023-01-23T12:49:20;24.67;;;16.17;;
10497;SDS011;5296;51.060;13.750;2023-01-23T12:54:35;23.13;;;16.73;;
10497;SDS011;5296;51.060;13.750;2023-01-23T12:59:48;25.47;;;16.80;;
10497;SDS011;5296;51.060;13.750;2023-01-23T13:05:18;25.70;;;17.57;;
10497;SDS011;5296;51.060;13.750;2023-01-23T13:16:11;24.23;;;17.13;;
10497;SDS011;5296;51.060;13.750;2023-01-23T13:21:14;25.37;;;16.80;;
10497;SDS011;5296;51.060;13.750;2023-01-23T13:26:36;25.67;;;17.53;;
10497;SDS011;5296;51.060;13.750;2023-01-23T13:31:41;26.83;;;17.93;;
10497;SDS011;5296;51.060;13.750;2023-01-23T13:36:47;26.93;;;18.10;;
10497;SDS011;5296;51.060;13.750;2023-01-23T13:41:51;32.10;;;18.77;;
10497;SDS011;5296;51.060;13.750;2023-01-23T13:47:22;28.07;;;18.77;;
10497;SDS011;5296;51.060;13.750;2023-01-23T13:53:13;28.70;;;19.77;;
10497;SDS011;5296;51.060;13.750;2023-01-23T13:58:50;31.47;;;20.37;;
10497;SDS011;5296;51.060;13.750;2023-01-23T14:04:11;31.83;;;20.10;;
10497;SDS011;5296;51.060;13.750;2023-01-23T14:09:49;31.37;;;20.03;;
10497;SDS011;5296;51.060;13.750;2023-01-23T14:20:52;36.60;;;21.87;;
10497;SDS011;5296;51.060;13.750;2023-01-23T14:25:55;35.23;;;22.43;;
10497;SDS011;5296;51.060;13.750;2023-01-23T14:30:58;35.03;;;21.80;;
10497;SDS011;5296;51.060;13.750;2023-01-23T14:36:02;38.30;;;22.13;;
10497;SDS011;5296;51.060;13.750;2023-01-23T14:41:05;37.50;;;23.47;;
10497;SDS011;5296;51.060;13.750;2023-01-23T14:46:17;36.57;;;22.27;;
10497;SDS011;5296;51.060;13.750;2023-01-23T14:51:22;35.30;;;21.47;;
10497;SDS011;5296;51.060;13.750;2023-01-23T14:56:32;35.30;;;21.33;;
10497;SDS011;5296;51.060;13.750;2023-01-23T15:01:35;37.10;;;21.87;;
10497;SDS011;5296;51.060;13.750;2023-01-23T15:06:36;36.63;;;22.73;;
10497;SDS011;5296;51.060;13.750;2023-01-23T15:11:38;36.57;;;22.80;;
10497;SDS011;5296;51.060;13.750;2023-01-23T15:16:40;35.30;;;22.53;;
10497;SDS011;5296;51.060;13.750;2023-01-23T15:21:42;35.23;;;21.53;;
10497;SDS011;5296;51.060;13.750;2023-01-23T15:26:46;39.27;;;22.60;;
10497;SDS011;5296;51.060;13.750;2023-01-23T15:31:56;42.90;;;23.30;;
10497;SDS011;5296;51.060;13.750;2023-01-23T15:42:01;39.20;;;23.10;;
10497;SDS011;5296;51.060;13.750;2023-01-23T15:47:30;39.63;;;22.30;;
10497;SDS011;5296;51.060;13.750;2023-01-23T15:52:48;39.50;;;22.60;;
10497;SDS011;5296;51.060;13.750;2023-01-23T15:57:51;37.67;;;23.63;;
10497;SDS011;5296;51.060;13.750;2023-01-23T16:02:54;38.93;;;24.50;;
10497;SDS011;5296;51.060;13.750;2023-01-23T16:07:59;41.73;;;24.50;;
10497;SDS011;5296;51.060;13.750;2023-01-23T16:13:03;35.67;;;21.57;;
10497;SDS011;5296;51.060;13.750;2023-01-23T16:18:05;37.43;;;22.80;;
10497;SDS011;5296;51.060;13.750;2023-01-23T16:23:11;34.93;;;22.53;;
10497;SDS011;5296;51.060;13.750;2023-01-23T16:28:20;32.70;;;20.73;;
10497;SDS011;5296;51.060;13.750;2023-01-23T16:33:23;33.63;;;22.33;;
10497;SDS011;5296;51.060;13.750;2023-01-23T16:38:27;36.47;;;22.10;;
10497;SDS011;5296;51.060;13.750;2023-01-23T16:43:29;37.97;;;22.47;;
10497;SDS011;5296;51.060;13.750;2023-01-23T16:48:30;36.33;;;22.33;;
10497;SDS011;5296;51.060;13.750;2023-01-23T16:53:35;32.67;;;21.30;;
10497;SDS011;5296;51.060;13.750;2023-01-23T16:58:40;38.60;;;22.73;;
10497;SDS011;5296;51.060;13.750;2023-01-23T17:03:42;31.63;;;20.43;;
10497;SDS011;5296;51.060;13.750;2023-01-23T17:08:44;33.67;;;20.87;;
10497;SDS011;5296;51.060;13.750;2023-01-23T17:13:46;35.77;;;21.83;;
10497;SDS011;5296;51.060;13.750;2023-01-23T17:18:48;32.27;;;20.60;;
10497;SDS011;5296;51.060;13.750;2023-01-23T17:23:50;33.67;;;20.97;;
10497;SDS011;5296;51.060;13.750;2023-01-23T17:28:52;29.37;;;20.00;;
10497;SDS011;5296;51.060;13.750;2023-01-23T17:33:54;29.60;;;18.87;;
10497;SDS011;5296;51.060;13.750;2023-01-23T17:38:56;30.63;;;19.93;;
10497;SDS011;5296;51.060;13.750;2023-01-23T17:43:59;29.43;;;20.77;;
10497;SDS011;5296;51.060;13.750;2023-01-23T17:49:00;31.27;;;19.97;;
10497;SDS011;5296;51.060;13.750;2023-01-23T17:54:02;30.60;;;20.33;;
10497;SDS011;5296;51.060;13.750;2023-01-23T17:59:04;29.97;;;19.43;;
10497;SDS011;5296;51.060;13.750;2023-01-23T18:04:16;29.43;;;20.73;;
10497;SDS011;5296;51.060;13.750;2023-01-23T18:09:19;30.10;;;21.10;;
10497;SDS011;5296;51.060;13.750;2023-01-23T18:14:34;28.83;;;20.33;;
10497;SDS011;5296;51.060;13.750;2023-01-23T18:19:42;29.20;;;19.27;;
10497;SDS011;5296;51.060;13.750;2023-01-23T18:24:44;28.50;;;19.83;;
10497;SDS011;5296;51.060;13.750;2023-01-23T18:30:03;28.27;;;20.27;;
10497;SDS011;5296;51.060;13.750;2023-01-23T18:45:43;29.43;;;18.73;;
10497;SDS011;5296;51.060;13.750;2023-01-23T18:50:47;29.57;;;19.13;;
10497;SDS011;5296;51.060;13.750;2023-01-23T19:07:15;32.80;;;20.63;;
10497;SDS011;5296;51.060;13.750;2023-01-23T19:12:26;32.63;;;20.07;;
10497;SDS011;5296;51.060;13.750;2023-01-23T19:17:41;32.67;;;21.10;;
10497;SDS011;5296;51.060;13.750;2023-01-23T19:27:59;32.87;;;21.23;;
10497;SDS011;5296;51.060;13.750;2023-01-23T19:33:01;30.50;;;20.17;;
10497;SDS011;5296;51.060;13.750;2023-01-23T19:38:02;32.63;;;20.70;;
10497;SDS011;5296;51.060;13.750;2023-01-23T19:43:04;30.60;;;21.00;;
10497;SDS011;5296;51.060;13.750;2023-01-23T19:48:15;32.33;;;21.47;;
10497;SDS011;5296;51.060;13.750;2023-01-23T19:53:16;32.03;;;21.23;;
10497;SDS011;5296;51.060;13.750;2023-01-23T19:58:19;32.50;;;21.17;;
10497;SDS011;5296;51.060;13.750;2023-01-23T20:03:21;36.33;;;22.17;;
10497;SDS011;5296;51.060;13.750;2023-01-23T20:08:22;33.60;;;21.77;;
10497;SDS011;5296;51.060;13.750;2023-01-23T20:13:24;32.63;;;21.07;;
10497;SDS011;5296;51.060;13.750;2023-01-23T20:18:25;38.40;;;23.30;;
10497;SDS011;5296;51.060;13.750;2023-01-23T20:23:27;35.97;;;22.57;;
10497;SDS011;5296;51.060;13.750;2023-01-23T20:28:29;35.60;;;22.37;;
10497;SDS011;5296;51.060;13.750;2023-01-23T20:33:31;33.77;;;21.53;;
10497;SDS011;5296;51.060;13.750;2023-01-23T20:38:32;39.40;;;24.30;;
10497;SDS011;5296;51.060;13.750;2023-01-23T20:43:34;35.87;;;23.23;;
10497;SDS011;5296;51.060;13.750;2023-01-23T20:48:37;35.97;;;23.37;;
10497;SDS011;5296;51.060;13.750;2023-01-23T20:53:40;40.33;;;24.33;;
10497;SDS011;5296;51.060;13.750;2023-01-23T20:58:43;35.23;;;21.97;;
10497;SDS011;5296;51.060;13.750;2023-01-23T21:04:05;38.77;;;22.30;;
10497;SDS011;5296;51.060;13.750;2023-01-23T21:09:07;40.93;;;23.97;;
10497;SDS011;5296;51.060;13.750;2023-01-23T21:14:08;50.87;;;30.07;;
10497;SDS011;5296;51.060;13.750;2023-01-23T21:19:10;36.27;;;23.30;;
10497;SDS011;5296;51.060;13.750;2023-01-23T21:24:11;38.93;;;24.33;;
10497;SDS011;5296;51.060;13.750;2023-01-23T21:29:13;38.53;;;23.20;;
10497;SDS011;5296;51.060;13.750;2023-01-23T21:34:15;37.93;;;24.27;;
10497;SDS011;5296;51.060;13.750;2023-01-23T21:39:17;40.57;;;25.17;;
10497;SDS011;5296;51.060;13.750;2023-01-23T21:44:19;42.20;;;24.40;;
10497;SDS011;5296;51.060;13.750;2023-01-23T21:49:20;43.20;;;25.17;;
10497;SDS011;5296;51.060;13.750;2023-01-23T21:54:22;39.53;;;24.87;;
10497;SDS011;5296;51.060;13.750;2023-01-23T21:59:23;39.43;;;23.77;;
10497;SDS011;5296;51.060;13.750;2023-01-23T22:04:25;40.97;;;23.63;;
10497;SDS011;5296;51.060;13.750;2023-01-23T22:09:27;37.37;;;23.43;;
10497;SDS011;5296;51.060;13.750;2023-01-23T22:14:28;41.37;;;24.13;;
10497;SDS011;5296;51.060;13.750;2023-01-23T22:19:30;40.17;;;24.57;;
10497;SDS011;5296;51.060;13.750;2023-01-23T22:24:32;39.20;;;24.90;;
10497;SDS011;5296;51.060;13.750;2023-01-23T22:29:34;39.40;;;24.00;;
10497;SDS011;5296;51.060;13.750;2023-01-23T22:34:35;41.17;;;24.93;;
10497;SDS011;5296;51.060;13.750;2023-01-23T22:39:37;39.03;;;23.43;;
10497;SDS011;5296;51.060;13.750;2023-01-23T22:44:38;41.10;;;24.33;;
10497;SDS011;5296;51.060;13.750;2023-01-23T22:49:40;40.33;;;24.63;;
10497;SDS011;5296;51.060;13.750;2023-01-23T22:54:44;42.60;;;24.63;;
10497;SDS011;5296;51.060;13.750;2023-01-23T22:59:45;42.90;;;24.77;;
10497;SDS011;5296;51.060;13.750;2023-01-23T23:04:49;38.17;;;24.30;;
10497;SDS011;5296;51.060;13.750;2023-01-23T23:09:51;42.37;;;24.70;;
10497;SDS011;5296;51.060;13.750;2023-01-23T23:14:53;38.23;;;23.03;;
10497;SDS011;5296;51.060;13.750;2023-01-23T23:19:55;39.23;;;23.97;;
10497;SDS011;5296;51.060;13.750;2023-01-23T23:24:56;44.27;;;25.70;;
10497;SDS011;5296;51.060;13.750;2023-01-23T23:29:58;43.53;;;25.43;;
10497;SDS011;5296;51.060;13.750;2023-01-23T23:34:59;40.43;;;25.07;;
10497;SDS011;5296;51.060;13.750;2023-01-23T23:40:01;42.57;;;26.37;;
10497;SDS011;5296;51.060;13.750;2023-01-23T23:45:04;43.37;;;25.67;;
10497;SDS011;5296;51.060;13.750;2023-01-23T23:50:06;41.00;;;23.93;;
10497;SDS011;5296;51.060;13.750;2023-01-23T23:55:08;42.67;;;24.27;;
